Time;durP1;ratioP1;P1;durP2;ratioP2;P2;SDS_P1;SDS_P2;PMS_P1;PMS_P2;Temp;Humidity;BMP_temperature;BMP_pressure;BME280_temperature;BME280_humidity;BME280_pressure;Samples;Min_cycle;Max_cycle;Signal;HPM_P1;HPM_P2
2021/09/28 00:00:38;;;;;;;4.80;2.58;;;10.40;99.90;;;;;;5048848;28;20516;-69
2021/09/28 00:03:04;;;;;;;4.60;2.50;;;10.40;99.90;;;;;;5049444;28;20041;-69
2021/09/28 00:05:30;;;;;;;2.63;2.30;;;10.40;99.90;;;;;;5050356;28;20040;-69
2021/09/28 00:07:55;;;;;;;4.00;2.58;;;10.30;99.90;;;;;;5048299;28;20032;-69
2021/09/28 00:10:21;;;;;;;2.95;2.30;;;10.30;99.90;;;;;;5049841;28;20028;-69
2021/09/28 00:12:47;;;;;;;3.92;2.22;;;10.30;99.90;;;;;;5037303;28;20139;-69
2021/09/28 00:15:14;;;;;;;6.95;2.90;;;10.30;99.90;;;;;;5039531;28;20088;-69
2021/09/28 00:17:40;;;;;;;8.90;2.72;;;10.30;99.90;;;;;;5053906;28;20043;-69
2021/09/28 00:20:07;;;;;;;4.10;2.67;;;10.30;99.90;;;;;;5049003;28;20041;-69
2021/09/28 00:22:34;;;;;;;5.13;2.72;;;10.30;99.90;;;;;;5047092;28;20135;-69
2021/09/28 00:24:59;;;;;;;3.17;2.58;;;10.30;99.90;;;;;;5063223;28;20044;-69
2021/09/28 00:27:25;;;;;;;4.93;2.58;;;10.20;99.90;;;;;;5054644;28;20049;-69
2021/09/28 00:29:50;;;;;;;5.43;2.83;;;10.20;99.90;;;;;;5048853;28;20040;-69
2021/09/28 00:32:16;;;;;;;6.90;2.92;;;10.20;99.90;;;;;;5048194;28;20045;-69
2021/09/28 00:34:42;;;;;;;6.43;3.20;;;10.20;99.90;;;;;;5045594;28;20032;-69
2021/09/28 00:37:08;;;;;;;3.60;3.25;;;10.20;99.90;;;;;;5048247;28;20052;-69
2021/09/28 00:39:34;;;;;;;8.88;3.17;;;10.20;99.90;;;;;;5048200;28;20402;-69
2021/09/28 00:42:00;;;;;;;4.82;2.80;;;10.20;99.90;;;;;;5048460;28;20041;-69
2021/09/28 00:44:33;;;;;;;6.32;3.42;;;10.20;99.90;;;;;;5048368;28;20064;-69
2021/09/28 00:46:58;;;;;;;4.82;3.20;;;10.10;99.90;;;;;;5050234;28;20065;-69
2021/09/28 00:49:24;;;;;;;4.88;3.10;;;10.10;99.90;;;;;;5048269;28;20521;-69
2021/09/28 00:51:50;;;;;;;8.35;3.80;;;10.10;99.90;;;;;;5048155;28;20049;-69
2021/09/28 00:54:16;;;;;;;4.80;3.45;;;10.00;99.90;;;;;;5045340;28;20080;-69
2021/09/28 00:56:43;;;;;;;7.78;3.70;;;10.00;99.90;;;;;;5049768;28;20047;-69
2021/09/28 00:59:08;;;;;;;4.38;3.40;;;9.90;99.90;;;;;;5049862;28;20033;-69
2021/09/28 01:01:34;;;;;;;4.00;3.25;;;10.00;99.90;;;;;;5047334;28;20365;-69
2021/09/28 01:04:01;;;;;;;5.32;3.20;;;10.00;99.90;;;;;;5053799;28;20069;-69
2021/09/28 01:06:26;;;;;;;4.97;3.38;;;10.00;99.90;;;;;;5046779;28;20045;-69
2021/09/28 01:08:52;;;;;;;5.15;3.85;;;10.00;99.90;;;;;;5029293;28;20041;-69
2021/09/28 01:11:17;;;;;;;7.00;3.60;;;10.00;99.90;;;;;;5047782;28;20124;-69
2021/09/28 01:13:43;;;;;;;4.68;3.50;;;10.00;99.90;;;;;;5046567;28;20132;-69
2021/09/28 01:16:11;;;;;;;8.13;3.58;;;9.90;99.90;;;;;;5048925;28;20045;-69
2021/09/28 01:18:39;;;;;;;6.28;3.45;;;9.90;99.90;;;;;;5044188;28;20382;-69
2021/09/28 01:21:13;;;;;;;4.40;3.85;;;9.90;99.90;;;;;;5049024;28;20053;-69
2021/09/28 01:23:44;;;;;;;5.05;3.53;;;9.90;99.90;;;;;;5046371;28;20438;-69
2021/09/28 01:26:23;;;;;;;4.88;3.88;;;9.90;99.90;;;;;;5048320;28;20110;-69
2021/09/28 01:28:49;;;;;;;3.72;3.40;;;9.80;99.90;;;;;;5044660;28;20125;-69
2021/09/28 01:31:15;;;;;;;8.48;3.65;;;9.80;99.90;;;;;;5048558;28;20512;-69
2021/09/28 01:33:41;;;;;;;6.15;4.10;;;9.80;99.90;;;;;;5045612;28;20126;-69
2021/09/28 01:36:07;;;;;;;5.80;4.15;;;9.80;99.90;;;;;;5048997;28;20071;-69
2021/09/28 01:38:33;;;;;;;6.22;3.85;;;9.80;99.90;;;;;;5047615;28;20155;-69
2021/09/28 01:40:59;;;;;;;5.43;4.03;;;9.80;99.90;;;;;;5048573;28;20041;-69
2021/09/28 01:43:24;;;;;;;4.60;3.90;;;9.80;99.90;;;;;;5047408;28;20132;-69
2021/09/28 01:45:57;;;;;;;4.90;4.40;;;9.80;99.90;;;;;;5047753;28;20036;-69
2021/09/28 01:48:37;;;;;;;5.53;4.25;;;9.70;99.90;;;;;;5062700;28;20059;-69
2021/09/28 01:51:03;;;;;;;6.93;4.03;;;9.80;99.90;;;;;;5044030;28;20043;-69
2021/09/28 01:53:29;;;;;;;6.40;3.85;;;9.70;99.90;;;;;;5044285;28;20736;-69
2021/09/28 01:55:54;;;;;;;5.30;3.88;;;9.70;99.90;;;;;;5046642;28;20042;-69
2021/09/28 01:58:20;;;;;;;8.85;4.20;;;9.70;99.90;;;;;;5037997;28;20044;-69
2021/09/28 02:00:45;;;;;;;8.32;4.30;;;9.70;99.90;;;;;;5052184;28;20170;-69
2021/09/28 02:03:11;;;;;;;5.60;4.07;;;9.70;99.90;;;;;;5051530;28;20509;-69
2021/09/28 02:05:38;;;;;;;7.72;4.07;;;9.60;99.90;;;;;;5050852;28;20053;-69
2021/09/28 02:08:04;;;;;;;5.82;4.47;;;9.60;99.90;;;;;;5049448;28;20052;-69
2021/09/28 02:10:30;;;;;;;7.35;4.90;;;9.60;99.90;;;;;;5048634;28;20406;-69
2021/09/28 02:12:55;;;;;;;5.60;4.30;;;9.60;99.90;;;;;;5050028;28;20355;-69
2021/09/28 02:15:21;;;;;;;4.97;4.10;;;9.50;99.90;;;;;;5050941;28;20048;-69
2021/09/28 02:17:47;;;;;;;4.85;4.07;;;9.50;99.90;;;;;;5049643;28;20044;-69
2021/09/28 02:20:12;;;;;;;5.55;4.30;;;9.50;99.90;;;;;;5050643;28;20077;-69
2021/09/28 02:22:38;;;;;;;5.25;4.32;;;9.50;99.90;;;;;;5050121;28;20049;-69
2021/09/28 02:25:08;;;;;;;6.38;4.55;;;9.50;99.90;;;;;;5053681;28;20033;-69
2021/09/28 02:27:34;;;;;;;7.97;5.10;;;9.50;99.90;;;;;;5053806;28;20107;-69
2021/09/28 02:30:00;;;;;;;7.53;4.50;;;9.50;99.90;;;;;;5049620;28;20449;-69
2021/09/28 02:32:25;;;;;;;6.00;4.88;;;9.50;99.90;;;;;;5049430;28;20447;-69
2021/09/28 02:34:51;;;;;;;6.70;4.63;;;9.40;99.90;;;;;;5049962;28;20056;-69
2021/09/28 02:37:17;;;;;;;8.65;4.30;;;9.40;99.90;;;;;;5049687;28;20040;-69
2021/09/28 02:39:42;;;;;;;6.53;5.13;;;9.40;99.90;;;;;;5047859;28;20048;-69
2021/09/28 02:42:09;;;;;;;5.60;5.03;;;9.40;99.90;;;;;;5049436;28;20070;-69
2021/09/28 02:44:35;;;;;;;7.25;5.72;;;9.30;99.90;;;;;;5050620;28;20032;-69
2021/09/28 02:47:01;;;;;;;7.80;5.13;;;9.30;99.90;;;;;;5050322;28;20041;-69
2021/09/28 02:49:26;;;;;;;7.03;5.32;;;9.30;99.90;;;;;;5045989;28;20029;-70
2021/09/28 02:51:52;;;;;;;8.73;5.45;;;9.30;99.90;;;;;;5050514;28;20398;-69
2021/09/28 02:54:18;;;;;;;6.25;5.07;;;9.30;99.90;;;;;;5050482;28;20045;-70
2021/09/28 02:56:43;;;;;;;8.27;6.60;;;9.30;99.90;;;;;;5051618;28;20124;-69
2021/09/28 02:59:09;;;;;;;6.88;5.57;;;9.30;99.90;;;;;;5032348;28;20045;-69
2021/09/28 03:01:34;;;;;;;7.55;5.53;;;9.20;99.90;;;;;;5049832;28;20368;-69
2021/09/28 03:04:00;;;;;;;8.85;6.10;;;9.20;99.90;;;;;;5048477;28;20040;-69
2021/09/28 03:06:25;;;;;;;7.15;5.72;;;9.20;99.90;;;;;;5049668;28;20395;-69
2021/09/28 03:08:51;;;;;;;6.97;6.15;;;9.20;99.90;;;;;;5048988;28;20489;-69
2021/09/28 03:11:17;;;;;;;7.85;6.40;;;9.20;99.90;;;;;;5033090;28;20178;-69
2021/09/28 03:13:42;;;;;;;11.27;6.43;;;9.20;99.90;;;;;;5048649;28;20091;-69
2021/09/28 03:16:08;;;;;;;9.52;6.95;;;9.20;99.90;;;;;;5050267;28;20055;-69
2021/09/28 03:18:33;;;;;;;8.75;7.13;;;9.20;99.90;;;;;;5055439;28;20043;-69
2021/09/28 03:20:59;;;;;;;7.57;6.85;;;9.20;99.90;;;;;;5053373;28;20048;-69
2021/09/28 03:23:24;;;;;;;9.38;6.43;;;9.20;99.90;;;;;;5033212;28;20146;-69
2021/09/28 03:25:50;;;;;;;8.20;6.85;;;9.20;99.90;;;;;;5059291;28;20080;-69
2021/09/28 03:28:16;;;;;;;8.57;6.78;;;9.20;99.90;;;;;;5033938;28;20037;-69
2021/09/28 03:30:43;;;;;;;11.60;7.95;;;9.20;99.90;;;;;;5049388;28;20494;-69
2021/09/28 03:33:08;;;;;;;10.07;8.05;;;9.20;99.90;;;;;;5043748;28;20049;-69
2021/09/28 03:35:34;;;;;;;8.98;8.05;;;9.20;99.90;;;;;;5050199;28;20024;-69
2021/09/28 03:38:00;;;;;;;8.63;7.43;;;9.20;99.90;;;;;;5065816;28;20048;-69
2021/09/28 03:40:29;;;;;;;11.82;8.63;;;9.20;99.90;;;;;;5048441;28;20048;-69
2021/09/28 03:42:55;;;;;;;8.85;7.60;;;9.20;99.90;;;;;;5049819;28;20045;-69
2021/09/28 03:45:20;;;;;;;8.73;7.93;;;9.10;99.90;;;;;;5049008;28;20588;-69
2021/09/28 03:47:46;;;;;;;9.30;8.10;;;9.10;99.90;;;;;;5048765;28;20041;-69
2021/09/28 03:50:12;;;;;;;13.60;8.82;;;9.20;99.90;;;;;;5047429;28;20098;-69
2021/09/28 03:52:37;;;;;;;7.47;6.78;;;9.10;99.90;;;;;;5049792;28;20376;-69
2021/09/28 03:55:04;;;;;;;11.88;8.48;;;9.10;99.90;;;;;;5049843;28;20041;-69
2021/09/28 03:57:30;;;;;;;9.95;7.45;;;9.10;99.90;;;;;;5048853;28;20119;-69
2021/09/28 03:59:56;;;;;;;11.23;8.68;;;9.10;99.90;;;;;;5047225;28;20128;-69
2021/09/28 04:02:22;;;;;;;10.45;8.52;;;9.10;99.90;;;;;;5049038;28;20122;-69
2021/09/28 04:04:47;;;;;;;8.60;7.78;;;9.10;99.90;;;;;;5048899;28;20547;-69
2021/09/28 04:07:13;;;;;;;10.65;8.40;;;9.10;99.90;;;;;;5049910;28;20056;-69
2021/09/28 04:09:39;;;;;;;10.68;8.40;;;9.10;99.90;;;;;;5049650;28;20033;-69
2021/09/28 04:12:06;;;;;;;9.50;8.35;;;9.10;99.90;;;;;;5046165;28;20523;-69
2021/09/28 04:14:32;;;;;;;9.10;7.78;;;9.00;99.90;;;;;;5048439;28;20051;-69
2021/09/28 04:16:57;;;;;;;9.43;8.25;;;9.10;99.90;;;;;;5047067;28;20041;-69
2021/09/28 04:19:23;;;;;;;12.38;8.70;;;9.00;99.90;;;;;;5048919;28;20128;-69
2021/09/28 04:21:48;;;;;;;10.75;8.15;;;9.00;99.90;;;;;;5049017;28;20156;-69
2021/09/28 04:24:14;;;;;;;12.55;8.40;;;9.00;99.90;;;;;;5063089;28;20066;-70
2021/09/28 04:26:40;;;;;;;10.18;8.68;;;9.00;99.90;;;;;;5054079;28;20482;-70
2021/09/28 04:29:06;;;;;;;14.25;9.18;;;9.00;99.90;;;;;;5048044;28;20049;-70
2021/09/28 04:31:31;;;;;;;11.15;8.50;;;9.00;99.90;;;;;;5046521;28;20045;-70
2021/09/28 04:33:57;;;;;;;9.93;8.68;;;9.00;99.90;;;;;;5049163;28;20071;-70
2021/09/28 04:36:23;;;;;;;12.50;8.75;;;9.00;99.90;;;;;;5048116;28;20055;-70
2021/09/28 04:38:50;;;;;;;12.07;8.52;;;9.00;99.90;;;;;;5030366;28;20454;-70
2021/09/28 04:41:16;;;;;;;9.43;8.20;;;9.00;99.90;;;;;;5045886;28;20036;-70
2021/09/28 04:43:41;;;;;;;10.27;9.20;;;9.00;99.90;;;;;;5047498;28;20040;-70
2021/09/28 04:46:07;;;;;;;10.43;8.85;;;9.00;99.90;;;;;;5045585;28;20545;-70
2021/09/28 04:48:32;;;;;;;10.13;9.05;;;9.00;99.90;;;;;;5048265;28;20043;-70
2021/09/28 04:50:58;;;;;;;10.38;8.30;;;9.00;99.90;;;;;;5048735;28;20047;-70
2021/09/28 04:53:24;;;;;;;11.27;8.23;;;9.00;99.90;;;;;;5047584;28;20120;-70
2021/09/28 04:55:54;;;;;;;10.60;8.05;;;8.90;99.90;;;;;;5048069;28;20094;-70
2021/09/28 04:58:21;;;;;;;10.65;8.32;;;8.90;99.90;;;;;;5047224;28;20025;-70
2021/09/28 05:00:47;;;;;;;10.68;8.85;;;8.90;99.90;;;;;;5029541;28;20049;-70
2021/09/28 05:03:13;;;;;;;12.73;8.18;;;8.90;99.90;;;;;;5048702;28;20461;-70
2021/09/28 05:05:38;;;;;;;11.88;8.85;;;8.90;99.90;;;;;;5047859;28;20033;-70
2021/09/28 05:08:04;;;;;;;13.00;9.48;;;8.90;99.90;;;;;;5029504;28;20087;-70
2021/09/28 05:10:30;;;;;;;10.00;9.05;;;8.90;99.90;;;;;;5049216;28;20079;-70
2021/09/28 05:12:55;;;;;;;14.02;9.85;;;8.90;99.90;;;;;;5047355;28;20082;-70
2021/09/28 05:15:21;;;;;;;14.13;10.88;;;8.90;99.90;;;;;;5046145;28;20033;-70
2021/09/28 05:17:46;;;;;;;14.27;10.52;;;9.00;99.90;;;;;;5030645;28;20044;-70
2021/09/28 05:20:12;;;;;;;12.75;10.52;;;9.00;99.90;;;;;;5036077;28;20037;-70
2021/09/28 05:22:38;;;;;;;13.18;9.65;;;9.10;99.90;;;;;;5033761;28;20441;-70
2021/09/28 05:25:04;;;;;;;11.93;10.70;;;9.10;99.90;;;;;;5048420;28;20037;-70
2021/09/28 05:27:29;;;;;;;13.55;11.40;;;9.10;99.90;;;;;;5052097;28;20040;-70
2021/09/28 05:29:55;;;;;;;13.27;11.10;;;9.20;99.90;;;;;;5056690;28;20037;-70
2021/09/28 05:32:20;;;;;;;16.45;11.23;;;9.20;99.90;;;;;;5059603;28;20055;-70
2021/09/28 05:34:46;;;;;;;16.08;10.88;;;9.20;99.90;;;;;;5052179;28;20045;-70
2021/09/28 05:37:11;;;;;;;17.75;11.73;;;9.30;99.90;;;;;;5035012;28;20045;-70
2021/09/28 05:39:37;;;;;;;11.65;10.45;;;9.30;99.90;;;;;;5048259;28;20049;-70
2021/09/28 05:42:02;;;;;;;17.25;11.55;;;9.40;99.90;;;;;;5047038;28;20551;-70
2021/09/28 05:44:28;;;;;;;14.65;11.82;;;9.40;99.90;;;;;;5048100;28;20393;-70
2021/09/28 05:46:54;;;;;;;14.48;10.80;;;9.40;99.90;;;;;;5048720;28;20041;-70
2021/09/28 05:49:19;;;;;;;14.73;11.20;;;9.40;99.90;;;;;;5065067;28;20086;-69
2021/09/28 05:51:52;;;;;;;14.57;10.23;;;9.50;99.90;;;;;;5051651;28;20045;-69
2021/09/28 05:54:19;;;;;;;13.98;11.65;;;9.50;99.90;;;;;;5051640;28;20409;-69
2021/09/28 05:56:47;;;;;;;13.43;11.48;;;9.50;99.90;;;;;;5053048;28;20059;-69
2021/09/28 05:59:13;;;;;;;16.90;11.27;;;9.60;99.90;;;;;;5031905;28;20049;-70
2021/09/28 06:01:39;;;;;;;14.32;10.27;;;9.60;99.90;;;;;;5031640;28;20045;-70
2021/09/28 06:04:04;;;;;;;15.73;10.93;;;9.60;99.90;;;;;;5031473;28;20345;-70
2021/09/28 06:06:31;;;;;;;17.33;11.35;;;9.60;99.90;;;;;;5031904;28;20038;-70
2021/09/28 06:08:57;;;;;;;13.75;10.55;;;9.70;99.90;;;;;;5050192;28;20381;-69
2021/09/28 06:11:23;;;;;;;15.85;11.82;;;9.80;99.90;;;;;;5051304;28;20045;-69
2021/09/28 06:13:50;;;;;;;19.02;11.57;;;9.80;99.90;;;;;;5052675;28;20402;-69
2021/09/28 06:16:15;;;;;;;15.73;11.88;;;9.90;99.90;;;;;;5051301;28;20037;-69
2021/09/28 06:18:41;;;;;;;13.07;11.52;;;10.00;99.90;;;;;;5052857;28;20441;-69
2021/09/28 06:21:06;;;;;;;19.42;10.48;;;10.10;99.90;;;;;;5052528;28;20144;-70
2021/09/28 06:23:32;;;;;;;19.90;12.45;;;10.20;99.90;;;;;;5051694;28;20136;-70
2021/09/28 06:25:57;;;;;;;13.80;10.20;;;10.50;99.90;;;;;;5050970;28;20045;-70
2021/09/28 06:28:23;;;;;;;9.60;8.02;;;11.10;99.90;;;;;;5051303;28;20091;-70
2021/09/28 06:30:48;;;;;;;10.68;9.00;;;11.90;99.90;;;;;;5057350;28;20037;-70
2021/09/28 06:33:14;;;;;;;11.70;8.90;;;12.60;99.90;;;;;;5036588;28;20091;-70
2021/09/28 06:35:40;;;;;;;11.68;8.00;;;13.30;99.90;;;;;;5045026;28;20053;-71
2021/09/28 06:38:07;;;;;;;13.25;7.47;;;14.00;99.90;;;;;;5051536;28;20052;-70
2021/09/28 06:40:33;;;;;;;11.48;7.30;;;14.60;99.90;;;;;;5050428;28;20119;-70
2021/09/28 06:42:59;;;;;;;10.23;7.50;;;15.20;99.90;;;;;;5050436;28;20103;-70
2021/09/28 06:45:24;;;;;;;11.57;6.75;;;15.70;99.90;;;;;;5050922;28;20079;-70
2021/09/28 06:47:50;;;;;;;10.95;6.80;;;16.20;99.90;;;;;;5051589;28;20535;-70
2021/09/28 06:50:16;;;;;;;10.70;7.38;;;16.60;99.90;;;;;;5042778;28;20048;-70
2021/09/28 06:52:43;;;;;;;12.05;6.63;;;17.00;99.90;;;;;;5044723;28;20033;-71
2021/09/28 06:55:09;;;;;;;10.68;6.82;;;17.40;99.90;;;;;;5034303;28;20501;-72
2021/09/28 06:57:35;;;;;;;9.15;6.40;;;18.00;99.90;;;;;;5051825;28;20139;-72
2021/09/28 07:00:01;;;;;;;8.60;6.50;;;18.30;99.90;;;;;;5050280;28;20124;-72
2021/09/28 07:02:27;;;;;;;12.02;6.68;;;18.40;99.90;;;;;;5054138;28;20162;-72
2021/09/28 07:04:53;;;;;;;10.07;6.40;;;18.80;99.90;;;;;;5058474;28;20040;-71
2021/09/28 07:07:19;;;;;;;10.00;5.90;;;19.20;99.90;;;;;;5048626;28;20036;-71
2021/09/28 07:09:45;;;;;;;12.10;6.10;;;19.30;99.90;;;;;;5049521;28;20165;-72
2021/09/28 07:12:10;;;;;;;11.00;6.38;;;19.20;99.90;;;;;;5050085;28;20067;-71
2021/09/28 07:14:36;;;;;;;11.07;6.65;;;19.00;99.90;;;;;;5048826;28;20478;-71
2021/09/28 07:17:01;;;;;;;10.85;6.55;;;18.40;99.90;;;;;;5050095;28;20039;-71
2021/09/28 07:19:27;;;;;;;11.95;6.57;;;17.80;99.90;;;;;;5050288;28;20044;-71
2021/09/28 07:21:52;;;;;;;13.30;9.10;;;17.50;99.90;;;;;;5048605;28;20045;-71
2021/09/28 07:24:18;;;;;;;11.82;7.80;;;16.90;99.90;;;;;;5044875;28;20037;-71
2021/09/28 07:26:44;;;;;;;12.13;6.95;;;16.50;99.90;;;;;;5055073;28;20445;-71
2021/09/28 07:29:09;;;;;;;12.00;6.88;;;16.20;99.90;;;;;;5065679;28;20047;-71
2021/09/28 07:31:35;;;;;;;10.65;7.22;;;15.80;99.90;;;;;;5050275;28;20066;-71
2021/09/28 07:34:00;;;;;;;10.57;8.13;;;15.60;99.90;;;;;;5049569;28;20045;-72
2021/09/28 07:36:26;;;;;;;13.88;8.10;;;15.40;99.90;;;;;;5049204;28;20044;-72
2021/09/28 07:38:51;;;;;;;13.07;7.78;;;15.20;99.90;;;;;;5049288;28;20045;-70
2021/09/28 07:41:17;;;;;;;13.40;7.72;;;15.00;99.90;;;;;;5046572;28;20044;-71
2021/09/28 07:43:45;;;;;;;11.98;6.95;;;14.90;99.90;;;;;;5051713;28;20051;-71
2021/09/28 07:46:10;;;;;;;15.85;7.80;;;14.70;99.90;;;;;;5043362;28;20044;-72
2021/09/28 07:48:36;;;;;;;14.23;8.00;;;14.70;99.90;;;;;;5066782;28;20106;-72
2021/09/28 07:51:02;;;;;;;13.20;7.50;;;14.50;99.90;;;;;;5049159;28;20486;-71
2021/09/28 07:53:27;;;;;;;15.75;8.90;;;14.50;99.90;;;;;;5052525;28;20128;-71
2021/09/28 07:55:54;;;;;;;11.88;7.78;;;14.40;99.90;;;;;;5047988;28;20029;-71
2021/09/28 07:58:19;;;;;;;15.40;8.15;;;14.30;99.90;;;;;;5048117;28;20541;-71
2021/09/28 08:00:45;;;;;;;16.23;7.72;;;14.30;99.90;;;;;;5046196;28;20141;-71
2021/09/28 08:03:11;;;;;;;15.85;8.40;;;14.30;99.90;;;;;;5046098;28;20056;-71
2021/09/28 08:05:37;;;;;;;12.98;7.78;;;14.40;99.90;;;;;;5038846;28;20112;-71
2021/09/28 08:08:03;;;;;;;13.63;7.40;;;14.40;99.90;;;;;;5058360;28;20037;-71
2021/09/28 08:10:28;;;;;;;10.98;7.40;;;14.40;99.90;;;;;;5028080;28;20040;-71
2021/09/28 08:12:54;;;;;;;16.58;8.45;;;14.40;99.90;;;;;;5045285;28;20047;-71
2021/09/28 08:15:20;;;;;;;12.93;6.82;;;14.50;99.90;;;;;;5032281;28;20083;-71
2021/09/28 08:17:45;;;;;;;13.02;7.50;;;14.60;99.90;;;;;;5049745;28;20474;-71
2021/09/28 08:20:16;;;;;;;14.20;7.18;;;14.60;99.90;;;;;;5048239;28;20322;-72
2021/09/28 08:22:42;;;;;;;11.98;6.95;;;14.60;99.90;;;;;;5056676;22;20056;-67
2021/09/28 08:25:11;;;;;;;14.15;7.47;;;14.70;99.90;;;;;;5039313;28;20402;-66
2021/09/28 08:30:22;;;;;;;13.82;7.78;;;14.80;99.90;;;;;;5034928;28;20036;-64
2021/09/28 08:32:47;;;;;;;17.20;7.80;;;14.80;99.90;;;;;;5041189;28;20045;-64
2021/09/28 08:35:13;;;;;;;12.38;6.63;;;14.90;99.90;;;;;;5033233;28;20552;-64
2021/09/28 08:37:39;;;;;;;10.60;6.30;;;15.00;99.90;;;;;;5039701;28;20063;-64
2021/09/28 08:40:05;;;;;;;12.20;6.90;;;15.00;99.90;;;;;;5039564;28;20091;-64
2021/09/28 08:42:31;;;;;;;15.02;6.03;;;15.20;99.90;;;;;;5045413;28;20072;-64
2021/09/28 08:44:56;;;;;;;14.20;6.78;;;15.30;99.90;;;;;;5044834;28;20529;-64
2021/09/28 08:47:42;;;;;;;15.13;6.68;;;15.30;99.90;;;;;;5038705;28;20535;-65
2021/09/28 08:50:12;;;;;;;15.02;6.07;;;15.40;99.90;;;;;;5035229;28;20038;-64
2021/09/28 08:52:41;;;;;;;14.68;6.05;;;15.50;99.90;;;;;;5044482;28;20099;-64
2021/09/28 08:55:07;;;;;;;11.52;5.80;;;15.60;99.90;;;;;;5018213;28;20073;-64
2021/09/28 08:57:33;;;;;;;13.05;5.25;;;15.60;99.90;;;;;;5040291;28;20728;-64
2021/09/28 08:59:59;;;;;;;10.60;5.07;;;15.70;99.90;;;;;;5045780;28;20098;-64
2021/09/28 09:02:42;;;;;;;11.88;5.15;;;15.80;99.90;;;;;;5044508;28;20041;-64
2021/09/28 09:05:12;;;;;;;10.10;4.55;;;15.90;99.90;;;;;;5047291;28;20049;-64
2021/09/28 09:07:38;;;;;;;12.30;4.88;;;16.00;99.90;;;;;;5052285;28;20040;-64
2021/09/28 09:10:04;;;;;;;10.23;4.15;;;16.00;99.90;;;;;;5043178;28;20041;-64
2021/09/28 09:12:35;;;;;;;10.70;4.63;;;16.10;99.90;;;;;;5055444;28;20044;-64
2021/09/28 09:15:17;;;;;;;12.35;4.65;;;16.10;99.90;;;;;;5048705;28;20049;-64
2021/09/28 09:17:43;;;;;;;10.97;4.50;;;16.10;99.90;;;;;;5044834;28;20081;-64
2021/09/28 09:20:23;;;;;;;12.23;4.60;;;16.20;99.90;;;;;;5048513;28;20425;-64
2021/09/28 09:22:49;;;;;;;11.35;4.32;;;16.20;99.90;;;;;;5028430;28;20594;-64
2021/09/28 09:25:22;;;;;;;16.65;4.57;;;16.20;99.90;;;;;;5044241;28;20056;-64
2021/09/28 09:27:49;;;;;;;14.68;4.50;;;16.20;99.90;;;;;;5038849;28;20484;-64
2021/09/28 09:30:21;;;;;;;13.15;4.78;;;16.30;99.90;;;;;;5039161;28;20037;-64
2021/09/28 09:32:55;;;;;;;14.95;4.15;;;16.30;99.90;;;;;;5021576;28;20126;-64
2021/09/28 09:35:33;;;;;;;9.38;3.85;;;16.30;99.90;;;;;;5039296;28;20512;-64
2021/09/28 09:38:15;;;;;;;11.07;3.88;;;16.30;99.90;;;;;;5036508;28;20490;-64
2021/09/28 09:40:43;;;;;;;11.32;3.92;;;16.40;99.90;;;;;;5034814;28;20037;-64
2021/09/28 09:43:10;;;;;;;11.38;4.05;;;16.40;99.90;;;;;;5039549;28;20509;-64
2021/09/28 09:45:37;;;;;;;9.77;3.28;;;16.40;99.90;;;;;;5041566;28;20040;-64
2021/09/28 09:48:26;;;;;;;11.52;3.50;;;16.40;99.90;;;;;;5048225;28;20493;-64
2021/09/28 09:51:06;;;;;;;12.38;3.63;;;16.40;99.90;;;;;;5036625;28;20376;-64
2021/09/28 09:53:33;;;;;;;10.50;3.35;;;16.50;99.90;;;;;;5043841;28;20029;-64
2021/09/28 09:55:59;;;;;;;14.63;3.38;;;16.60;99.90;;;;;;5046669;28;20072;-64
2021/09/28 09:58:25;;;;;;;9.65;2.78;;;16.60;99.90;;;;;;5047734;28;20075;-63
2021/09/28 10:00:54;;;;;;;11.70;4.07;;;16.70;99.90;;;;;;5032312;28;20052;-64
2021/09/28 10:03:21;;;;;;;10.85;2.90;;;16.70;99.90;;;;;;5040904;28;20053;-64
2021/09/28 10:05:47;;;;;;;9.68;2.85;;;16.80;99.90;;;;;;5039501;28;20039;-64
2021/09/28 10:08:14;;;;;;;10.43;3.10;;;16.90;99.90;;;;;;5043452;28;20115;-64
2021/09/28 10:10:41;;;;;;;9.90;2.97;;;17.00;99.90;;;;;;5041766;28;20048;-64
2021/09/28 10:13:07;;;;;;;6.97;2.42;;;17.00;99.90;;;;;;5047095;28;20401;-64
2021/09/28 10:15:34;;;;;;;16.30;3.05;;;17.10;99.90;;;;;;5037200;28;20048;-64
2021/09/28 10:18:00;;;;;;;10.10;2.60;;;17.20;99.90;;;;;;5045598;28;20532;-64
2021/09/28 10:20:29;;;;;;;8.10;2.28;;;17.20;99.90;;;;;;5042334;28;20091;-64
2021/09/28 10:23:00;;;;;;;8.75;2.20;;;17.30;99.90;;;;;;5040931;28;20053;-64
2021/09/28 10:25:35;;;;;;;9.80;2.20;;;17.30;99.90;;;;;;5050026;28;20041;-64
2021/09/28 10:28:03;;;;;;;14.65;2.40;;;17.40;99.90;;;;;;5043338;28;20279;-64
2021/09/28 10:30:38;;;;;;;9.23;2.63;;;17.50;99.90;;;;;;5042969;28;20462;-65
2021/09/28 10:33:22;;;;;;;14.52;2.28;;;17.60;99.90;;;;;;5042000;28;20049;-65
2021/09/28 10:35:54;;;;;;;10.30;2.45;;;17.70;99.90;;;;;;5048388;28;20059;-65
2021/09/28 10:38:46;;;;;;;11.40;2.10;;;17.80;99.90;;;;;;5039432;28;20390;-66
2021/09/28 10:41:31;;;;;;;11.45;2.10;;;17.90;99.90;;;;;;5044910;28;20041;-65
2021/09/28 10:44:24;;;;;;;9.93;1.83;;;18.00;99.90;;;;;;5049548;28;20071;-66
2021/09/28 10:46:50;;;;;;;9.65;2.08;;;18.10;99.90;;;;;;5045812;28;20055;-64
2021/09/28 10:49:26;;;;;;;10.02;2.03;;;18.20;99.90;;;;;;5049473;28;20116;-64
2021/09/28 10:52:21;;;;;;;11.75;2.35;;;18.30;99.90;;;;;;5045708;28;20052;-64
2021/09/28 10:55:12;;;;;;;7.20;2.00;;;18.50;99.90;;;;;;5036314;28;20064;-65
2021/09/28 10:57:59;;;;;;;7.70;2.25;;;18.60;99.90;;;;;;5051308;28;20049;-65
2021/09/28 11:00:36;;;;;;;9.85;2.35;;;18.50;99.90;;;;;;5051534;28;20044;-64
2021/09/28 11:03:01;;;;;;;8.20;1.92;;;18.40;99.90;;;;;;5051620;28;20371;-64
2021/09/28 11:05:38;;;;;;;8.48;1.55;;;18.20;99.90;;;;;;5035000;28;20049;-64
2021/09/28 11:08:05;;;;;;;11.15;1.85;;;18.10;99.90;;;;;;5048634;28;20486;-64
2021/09/28 11:10:32;;;;;;;8.75;2.08;;;18.10;99.90;;;;;;5047517;28;20488;-64
2021/09/28 11:13:04;;;;;;;6.43;1.80;;;18.00;99.90;;;;;;5070737;28;20041;-64
2021/09/28 11:15:29;;;;;;;7.15;1.60;;;18.00;99.90;;;;;;5070433;28;20106;-64
2021/09/28 11:17:55;;;;;;;8.60;2.00;;;18.00;99.90;;;;;;5039380;28;20502;-64
2021/09/28 11:20:27;;;;;;;8.02;1.90;;;18.10;99.90;;;;;;5034457;28;20043;-63
2021/09/28 11:23:13;;;;;;;7.95;2.05;;;18.30;99.90;;;;;;5032660;28;20081;-64
2021/09/28 11:25:49;;;;;;;7.70;1.70;;;18.50;99.90;;;;;;5051153;28;20118;-64
2021/09/28 11:28:17;;;;;;;6.85;1.80;;;18.70;99.90;;;;;;5033388;28;20151;-63
2021/09/28 11:30:54;;;;;;;7.35;1.73;;;18.80;99.90;;;;;;5046844;28;20410;-64
2021/09/28 11:33:20;;;;;;;10.10;2.13;;;18.90;99.90;;;;;;5043630;28;20517;-64
2021/09/28 11:36:00;;;;;;;6.57;1.42;;;19.00;99.90;;;;;;5037458;28;20433;-64
2021/09/28 11:38:31;;;;;;;9.40;1.45;;;19.20;99.90;;;;;;5046349;28;20036;-64
2021/09/28 11:41:18;;;;;;;8.32;1.80;;;19.40;99.90;;;;;;5047784;28;20044;-64
2021/09/28 11:43:50;;;;;;;8.68;2.25;;;19.50;99.90;;;;;;5047791;28;20041;-64
2021/09/28 11:46:18;;;;;;;9.57;1.90;;;19.60;99.90;;;;;;5047223;28;20181;-64
2021/09/28 11:48:47;;;;;;;8.23;1.80;;;19.60;99.90;;;;;;5036201;28;20101;-64
2021/09/28 11:51:15;;;;;;;6.63;1.85;;;19.60;99.90;;;;;;5032880;28;20044;-64
2021/09/28 11:53:45;;;;;;;8.32;1.90;;;19.50;99.90;;;;;;5047361;28;20042;-64
2021/09/28 11:56:15;;;;;;;7.30;1.85;;;19.10;99.90;;;;;;5047274;28;20057;-64
2021/09/28 11:58:42;;;;;;;9.00;2.03;;;19.10;99.90;;;;;;5046137;28;20041;-64
2021/09/28 12:01:12;;;;;;;8.00;1.63;;;19.30;99.90;;;;;;5049346;28;20044;-64
2021/09/28 12:04:08;;;;;;;5.35;1.70;;;19.30;99.90;;;;;;5036715;28;20383;-64
2021/09/28 12:06:47;;;;;;;8.93;1.63;;;19.50;99.90;;;;;;5030826;28;20041;-64
2021/09/28 12:09:14;;;;;;;5.72;1.70;;;19.40;99.90;;;;;;5031842;28;20048;-64
2021/09/28 12:12:02;;;;;;;6.50;1.75;;;19.30;99.90;;;;;;5035788;28;20041;-65
2021/09/28 12:14:41;;;;;;;6.20;1.50;;;19.20;99.90;;;;;;5014093;28;20053;-64
2021/09/28 12:17:29;;;;;;;11.93;1.90;;;19.20;99.90;;;;;;5049316;28;20044;-64
2021/09/28 12:19:56;;;;;;;7.63;1.90;;;19.10;99.90;;;;;;5025214;28;20144;-64
2021/09/28 12:22:48;;;;;;;9.35;1.63;;;19.20;99.90;;;;;;5039820;28;20445;-64
2021/09/28 12:25:24;;;;;;;5.47;1.77;;;19.20;99.90;;;;;;5050453;28;20612;-64
2021/09/28 12:27:56;;;;;;;9.57;2.22;;;19.20;99.90;;;;;;5050089;28;20044;-64
2021/09/28 12:30:23;;;;;;;7.72;1.80;;;19.20;99.90;;;;;;5045354;28;20037;-65
2021/09/28 12:32:50;;;;;;;10.40;1.83;;;19.20;99.90;;;;;;5040496;28;20144;-65
2021/09/28 12:35:29;;;;;;;6.95;1.58;;;19.20;99.90;;;;;;5029433;28;20471;-64
2021/09/28 12:37:57;;;;;;;7.65;1.83;;;19.10;99.90;;;;;;5045485;28;20041;-64
2021/09/28 12:40:25;;;;;;;6.43;1.25;;;19.10;99.90;;;;;;5042618;28;20044;-64
2021/09/28 12:43:12;;;;;;;9.00;2.25;;;19.10;99.90;;;;;;5049991;28;20052;-65
2021/09/28 12:45:54;;;;;;;6.85;1.88;;;19.20;99.90;;;;;;5040364;28;20048;-64
2021/09/28 12:48:40;;;;;;;6.97;1.80;;;19.40;99.90;;;;;;5050322;28;20487;-64
2021/09/28 12:51:19;;;;;;;7.47;1.60;;;19.60;99.90;;;;;;5041143;28;20491;-64
2021/09/28 12:53:45;;;;;;;6.55;1.52;;;19.80;99.90;;;;;;5048072;28;20045;-64